createdAt,value
2023-04-26T00:00:18.096Z,100936.13
2023-04-26T00:03:04.337Z,100939.56
2023-04-26T00:05:49.890Z,100938.63
2023-04-26T00:08:34.794Z,100942.13
2023-04-26T00:11:20.532Z,100932.72
2023-04-26T00:14:05.799Z,100941.34
2023-04-26T00:16:50.695Z,100950.72
2023-04-26T00:19:35.919Z,100949.91
2023-04-26T00:22:20.704Z,100936.16
2023-04-26T00:25:06.534Z,100951.56
2023-04-26T00:27:52.274Z,100952.47
2023-04-26T00:30:37.915Z,100955.91
2023-04-26T00:33:22.580Z,100957.69
2023-04-26T00:36:08.442Z,100954.97
2023-04-26T00:38:53.547Z,100955.97
2023-04-26T00:41:39.122Z,100947.41
2023-04-26T00:44:23.950Z,100954.25
2023-04-26T00:47:09.773Z,100949.13
2023-04-26T00:49:55.399Z,100951.44
2023-04-26T00:52:40.513Z,100953.25
2023-04-26T00:55:27.151Z,100946.41
2023-04-26T00:58:12.532Z,100949.81
2023-04-26T01:00:59.543Z,100948.78
2023-04-26T01:03:46.651Z,100956.69
2023-04-26T01:06:36.320Z,100949.91
2023-04-26T01:09:21.587Z,100956.78
2023-04-26T01:12:07.607Z,100958.59
2023-04-26T01:14:53.229Z,100962.91
2023-04-26T01:17:38.671Z,100966.31
2023-04-26T01:20:24.229Z,100957.66
2023-04-26T01:23:09.942Z,100959.47
2023-04-26T01:25:56.248Z,100959.47
2023-04-26T01:28:41.451Z,100962.06
2023-04-26T01:31:27.008Z,100956.91
2023-04-26T01:34:12.323Z,100973.28
2023-04-26T01:36:57.273Z,100966.31
2023-04-26T01:39:42.252Z,100968.66
2023-04-26T01:42:27.375Z,100980.84
2023-04-26T01:45:12.679Z,100976.75
2023-04-26T01:47:58.527Z,100976.56
2023-04-26T01:50:43.427Z,100970.59
2023-04-26T01:53:28.558Z,100969.78
2023-04-26T01:56:13.477Z,100968.06
2023-04-26T01:58:59.169Z,100970.69
2023-04-26T02:01:44.202Z,100975.88
2023-04-26T02:04:29.355Z,100975.00
2023-04-26T02:07:14.083Z,100975.00
2023-04-26T02:09:58.994Z,100970.66
2023-04-26T02:12:44.129Z,100974.13
2023-04-26T02:15:29.413Z,100974.88
2023-04-26T02:18:14.691Z,100976.69
2023-04-26T02:20:59.418Z,100975.91
2023-04-26T02:23:44.881Z,100975.03
2023-04-26T02:26:32.487Z,100981.06
2023-04-26T02:29:17.674Z,100984.44
2023-04-26T02:32:02.848Z,100974.09
2023-04-26T02:34:47.777Z,100977.59
2023-04-26T02:37:34.176Z,100974.13
2023-04-26T02:40:20.076Z,100977.63
2023-04-26T02:43:05.340Z,100972.38
2023-04-26T02:45:56.976Z,100975.75
2023-04-26T02:48:42.076Z,100973.22
2023-04-26T02:51:28.550Z,100969.84
2023-04-26T02:54:13.671Z,100975.78
2023-04-26T02:56:58.871Z,100978.41
2023-04-26T02:59:44.087Z,100985.31
2023-04-26T03:02:29.423Z,100974.97
2023-04-26T03:05:15.028Z,100977.50
2023-04-26T03:08:00.289Z,100977.56
2023-04-26T03:10:47.175Z,100977.38
2023-04-26T03:13:32.435Z,100987.00
2023-04-26T03:16:19.406Z,100992.28
2023-04-26T03:19:04.231Z,100985.41
2023-04-26T03:21:49.581Z,100992.28
2023-04-26T03:24:34.251Z,100990.56
2023-04-26T03:27:19.499Z,100989.69
2023-04-26T03:30:05.585Z,100982.69
2023-04-26T03:32:51.145Z,100979.34
2023-04-26T03:35:36.780Z,100978.47
2023-04-26T03:38:22.394Z,100982.75
2023-04-26T03:41:07.486Z,100987.84
2023-04-26T03:43:52.665Z,100986.25
2023-04-26T03:46:37.942Z,100985.31
2023-04-26T03:49:23.101Z,100989.63
2023-04-26T03:52:07.957Z,100976.72
2023-04-26T03:54:52.941Z,100984.47
2023-04-26T03:57:38.408Z,100984.16
2023-04-26T04:00:23.650Z,100975.00
2023-04-26T04:03:09.053Z,100975.03
2023-04-26T04:05:54.034Z,100979.16
2023-04-26T04:08:38.948Z,100973.28
2023-04-26T04:11:24.062Z,100978.44
2023-04-26T04:14:09.701Z,100994.03
2023-04-26T04:16:54.515Z,100978.47
2023-04-26T04:19:39.713Z,100984.50
2023-04-26T04:22:24.768Z,100991.44
2023-04-26T04:25:10.830Z,100994.75
2023-04-26T04:27:56.852Z,100992.28
2023-04-26T04:30:44.004Z,101001.75
2023-04-26T04:33:29.983Z,100994.03
2023-04-26T04:36:18.445Z,100992.28
2023-04-26T04:39:04.526Z,100991.44
2023-04-26T04:41:50.236Z,100999.19
2023-04-26T04:44:35.167Z,101007.63
2023-04-26T04:47:20.208Z,100999.09
2023-04-26T04:50:06.860Z,101005.25
2023-04-26T04:52:52.069Z,101011.13
2023-04-26T04:55:37.710Z,101004.22
2023-04-26T04:58:24.011Z,101016.06
2023-04-26T05:01:09.785Z,101011.91
2023-04-26T05:03:55.385Z,101021.75
2023-04-26T05:06:41.099Z,101016.19
2023-04-26T05:09:26.621Z,101018.41
2023-04-26T05:12:11.410Z,101022.09
2023-04-26T05:14:56.275Z,101023.91
2023-04-26T05:17:41.911Z,101021.56
2023-04-26T05:20:26.926Z,101027.53
2023-04-26T05:23:12.141Z,101020.69
2023-04-26T05:25:57.399Z,101031.06
2023-04-26T05:28:42.887Z,101025.84
2023-04-26T05:31:27.735Z,101040.28
2023-04-26T05:34:12.975Z,101045.34
2023-04-26T05:36:58.052Z,101048.09
2023-04-26T05:39:43.945Z,101050.56
2023-04-26T05:42:31.448Z,101045.56
2023-04-26T05:45:16.711Z,101050.88
2023-04-26T05:48:01.790Z,101047.41
2023-04-26T05:50:47.150Z,101054.25
2023-04-26T05:53:33.623Z,101054.28
2023-04-26T05:56:18.529Z,101060.31
2023-04-26T05:59:03.327Z,101062.13
2023-04-26T06:01:48.287Z,101068.91
2023-04-26T06:04:33.332Z,101070.50
2023-04-26T06:07:18.788Z,101062.88
2023-04-26T06:10:03.845Z,101060.34
2023-04-26T06:12:48.881Z,101061.28
2023-04-26T06:15:34.031Z,101065.50
2023-04-26T06:18:18.905Z,101055.19
2023-04-26T06:21:04.364Z,101053.50
2023-04-26T06:23:49.548Z,101056.09
2023-04-26T06:26:34.531Z,101055.34
2023-04-26T06:29:20.663Z,101049.31
2023-04-26T06:32:06.252Z,101045.00
2023-04-26T06:34:51.151Z,101048.44
2023-04-26T06:37:37.515Z,101048.44
2023-04-26T06:40:22.301Z,101050.13
2023-04-26T06:43:07.232Z,101050.13
2023-04-26T06:45:52.061Z,101054.50
2023-04-26T06:48:37.176Z,101062.25
2023-04-26T06:51:22.321Z,101055.34
2023-04-26T06:54:08.005Z,101060.50
2023-04-26T06:56:52.935Z,101066.59
2023-04-26T06:59:37.908Z,101057.91
2023-04-26T07:02:24.374Z,101059.66
2023-04-26T07:05:10.028Z,101067.44
2023-04-26T07:07:54.714Z,101067.41
2023-04-26T07:10:40.077Z,101061.38
2023-04-26T07:13:24.915Z,101067.44
2023-04-26T07:16:09.945Z,101068.31
2023-04-26T07:18:58.090Z,101078.69
2023-04-26T07:21:43.421Z,101070.88
2023-04-26T07:24:28.803Z,101075.19
2023-04-26T07:27:14.006Z,101079.53
2023-04-26T07:29:59.299Z,101076.00
2023-04-26T07:32:44.670Z,101076.84
2023-04-26T07:35:29.607Z,101080.34
2023-04-26T07:38:19.765Z,101082.09
2023-04-26T07:41:04.962Z,101089.03
2023-04-26T07:43:50.715Z,101082.97
2023-04-26T07:46:36.028Z,101082.88
2023-04-26T07:49:21.381Z,101075.97
2023-04-26T07:52:06.270Z,101080.13
2023-04-26T07:54:51.731Z,101086.84
2023-04-26T07:57:37.605Z,101085.19
2023-04-26T08:00:22.923Z,101081.41
2023-04-26T08:03:08.394Z,101080.66
2023-04-26T08:05:54.062Z,101075.38
2023-04-26T08:08:45.003Z,101081.50
2023-04-26T08:11:29.890Z,101083.06
2023-04-26T08:14:14.958Z,101086.59
2023-04-26T08:16:59.732Z,101082.84
2023-04-26T08:19:44.738Z,101080.41
2023-04-26T08:22:29.677Z,101089.25
2023-04-26T08:25:15.265Z,101084.84
2023-04-26T08:28:00.541Z,101077.91
2023-04-26T08:30:46.093Z,101073.88
2023-04-26T08:33:31.587Z,101071.03
2023-04-26T08:36:16.584Z,101072.59
2023-04-26T08:39:01.528Z,101071.97
2023-04-26T08:41:57.348Z,101071.47
2023-04-26T08:44:44.523Z,101063.19
2023-04-26T08:47:38.350Z,101064.50
2023-04-26T08:50:24.227Z,101062.28
2023-04-26T08:53:11.545Z,101061.88
2023-04-26T08:55:57.542Z,101066.75
2023-04-26T08:58:42.540Z,101053.03
2023-04-26T09:01:29.993Z,101059.16
2023-04-26T09:04:15.143Z,101062.50
2023-04-26T09:07:01.692Z,101066.97
2023-04-26T09:09:51.871Z,101050.47
2023-04-26T09:12:36.878Z,101069.19
2023-04-26T09:15:23.776Z,101062.25
2023-04-26T09:18:23.149Z,101070.50
2023-04-26T09:21:09.290Z,101075.78
2023-04-26T09:24:04.706Z,101072.59
2023-04-26T09:27:03.080Z,101088.34
2023-04-26T09:30:10.345Z,101081.38
2023-04-26T09:33:07.611Z,101080.41
2023-04-26T09:35:52.760Z,101079.63
2023-04-26T09:38:42.790Z,101082.97
2023-04-26T09:41:45.678Z,101079.22
2023-04-26T09:44:31.986Z,101086.44
2023-04-26T09:47:17.439Z,101076.28
2023-04-26T09:50:02.665Z,101077.59
2023-04-26T09:52:48.228Z,101083.38
2023-04-26T09:55:35.545Z,101080.34
2023-04-26T09:58:20.943Z,101082.28
2023-04-26T10:01:08.084Z,101083.09
2023-04-26T10:03:53.989Z,101087.25
2023-04-26T10:06:39.415Z,101084.22
2023-04-26T10:09:24.551Z,101083.31
2023-04-26T10:12:11.826Z,101087.50
2023-04-26T10:14:57.639Z,101085.53
2023-04-26T10:17:45.227Z,101090.88
2023-04-26T10:20:30.760Z,101069.31
2023-04-26T10:23:22.403Z,101064.50
2023-04-26T10:26:07.484Z,101069.03
2023-04-26T10:28:56.141Z,101074.16
2023-04-26T10:32:02.201Z,101078.91
2023-04-26T10:35:13.236Z,101069.84
2023-04-26T10:38:01.503Z,101076.03
2023-04-26T10:40:50.014Z,101061.84
2023-04-26T10:43:35.527Z,101062.47
2023-04-26T10:46:40.775Z,101065.38
2023-04-26T10:49:26.705Z,101051.81
2023-04-26T10:52:23.017Z,101069.47
2023-04-26T10:55:09.929Z,101075.69
2023-04-26T10:57:56.280Z,101072.25
2023-04-26T11:00:41.994Z,101074.06
2023-04-26T11:03:30.969Z,101070.28
2023-04-26T11:06:17.305Z,101072.31
2023-04-26T11:09:02.114Z,101064.03
2023-04-26T11:11:53.767Z,101072.22
2023-04-26T11:14:41.532Z,101070.16
2023-04-26T11:17:26.699Z,101066.16
2023-04-26T11:20:16.318Z,101065.00
2023-04-26T11:23:04.810Z,101065.03
2023-04-26T11:25:50.309Z,101062.41
2023-04-26T11:28:37.466Z,101059.13
2023-04-26T11:31:22.699Z,101055.50
2023-04-26T11:34:08.251Z,101068.56
2023-04-26T11:36:53.758Z,101059.06
2023-04-26T11:39:42.940Z,101054.25
2023-04-26T11:42:27.967Z,101061.38
2023-04-26T11:45:16.350Z,101061.06
2023-04-26T11:48:03.116Z,101061.72
2023-04-26T11:50:48.630Z,101061.53
2023-04-26T11:53:38.382Z,101055.50
2023-04-26T11:56:25.524Z,101065.91
2023-04-26T11:59:11.357Z,101056.25
2023-04-26T12:02:00.428Z,101052.81
2023-04-26T12:04:46.647Z,101063.97
2023-04-26T12:07:37.586Z,101065.03
2023-04-26T12:10:27.059Z,101075.00
2023-04-26T12:13:13.728Z,101074.59
2023-04-26T12:15:59.122Z,101079.50
2023-04-26T12:18:52.146Z,101082.09
2023-04-26T12:21:43.476Z,101081.53
2023-04-26T12:24:34.349Z,101080.19
2023-04-26T12:27:24.853Z,101079.47
2023-04-26T12:30:10.553Z,101084.88
2023-04-26T12:33:05.824Z,101071.22
2023-04-26T12:36:08.977Z,101068.31
2023-04-26T12:38:54.156Z,101071.84
2023-04-26T12:41:41.800Z,101071.66
2023-04-26T12:44:27.005Z,101081.97
2023-04-26T12:47:11.946Z,101082.31
2023-04-26T12:49:57.579Z,101078.13
2023-04-26T12:52:44.213Z,101084.97
2023-04-26T12:55:32.590Z,101082.75
2023-04-26T12:58:17.871Z,101080.31
2023-04-26T13:01:02.842Z,101078.84
2023-04-26T13:03:47.759Z,101080.56
2023-04-26T13:06:40.476Z,101081.31
2023-04-26T13:09:25.985Z,101084.00
2023-04-26T13:12:11.054Z,101088.47
2023-04-26T13:14:56.806Z,101085.88
2023-04-26T13:17:43.213Z,101085.88
2023-04-26T13:20:30.413Z,101085.94
2023-04-26T13:23:16.611Z,101076.41
2023-04-26T13:26:03.018Z,101092.06
2023-04-26T13:28:48.259Z,101092.06
2023-04-26T13:31:34.892Z,101099.16
2023-04-26T13:34:21.419Z,101092.84
2023-04-26T13:37:06.640Z,101095.28
2023-04-26T13:39:52.157Z,101096.13
2023-04-26T13:42:37.683Z,101091.00
2023-04-26T13:45:22.553Z,101087.13
2023-04-26T13:48:07.560Z,101083.34
2023-04-26T13:50:53.055Z,101072.81
2023-04-26T13:53:38.273Z,101075.56
2023-04-26T13:56:26.128Z,101082.56
2023-04-26T13:59:11.052Z,101080.69
2023-04-26T14:01:58.353Z,101085.22
2023-04-26T14:04:44.790Z,101087.22
2023-04-26T14:07:29.892Z,101092.53
2023-04-26T14:10:15.442Z,101091.75
2023-04-26T14:13:00.595Z,101089.50
2023-04-26T14:15:45.689Z,101086.50
2023-04-26T14:18:31.962Z,101097.25
2023-04-26T14:21:18.168Z,101096.28
2023-04-26T14:24:04.152Z,101091.94
2023-04-26T14:26:49.117Z,101092.91
2023-04-26T14:29:34.834Z,101095.19
2023-04-26T14:32:19.989Z,101096.84
2023-04-26T14:35:05.336Z,101097.50
2023-04-26T14:37:50.472Z,101094.31
2023-04-26T14:40:37.512Z,101095.97
2023-04-26T14:43:22.654Z,101099.69
2023-04-26T14:46:09.865Z,101102.59
2023-04-26T14:48:55.994Z,101098.94
2023-04-26T14:51:41.275Z,101106.09
2023-04-26T14:54:26.138Z,101098.56
2023-04-26T14:57:12.121Z,101109.28
2023-04-26T15:00:02.174Z,101104.00
2023-04-26T15:02:48.710Z,101104.09
2023-04-26T15:05:33.756Z,101110.91
2023-04-26T15:08:19.574Z,101117.13
2023-04-26T15:11:04.746Z,101113.88
2023-04-26T15:13:49.763Z,101122.47
2023-04-26T15:16:35.001Z,101119.88
2023-04-26T15:19:19.943Z,101125.94
2023-04-26T15:22:05.700Z,101125.09
2023-04-26T15:24:51.008Z,101121.66
2023-04-26T15:27:37.660Z,101124.19
2023-04-26T15:30:22.651Z,101121.09
2023-04-26T15:33:09.822Z,101117.50
2023-04-26T15:35:54.911Z,101117.00
2023-04-26T15:38:41.948Z,101110.47
2023-04-26T15:41:29.234Z,101112.41
2023-04-26T15:44:14.265Z,101111.88
2023-04-26T15:47:02.349Z,101107.09
2023-04-26T15:49:48.288Z,101112.38
2023-04-26T15:52:37.837Z,101119.44
2023-04-26T15:55:24.240Z,101124.16
2023-04-26T15:58:09.458Z,101126.22
2023-04-26T16:00:54.474Z,101126.22
2023-04-26T16:03:42.750Z,101123.66
2023-04-26T16:06:33.133Z,101129.72
2023-04-26T16:09:25.204Z,101124.66
2023-04-26T16:12:11.350Z,101120.59
2023-04-26T16:14:57.855Z,101132.75
2023-04-26T16:17:42.906Z,101135.50
2023-04-26T16:20:28.077Z,101140.03
2023-04-26T16:23:13.147Z,101148.16
2023-04-26T16:25:58.462Z,101141.19
2023-04-26T16:28:43.861Z,101156.91
2023-04-26T16:31:29.486Z,101150.91
2023-04-26T16:34:14.392Z,101153.53
2023-04-26T16:36:59.219Z,101147.59
2023-04-26T16:39:44.312Z,101151.88
2023-04-26T16:42:29.873Z,101146.69
2023-04-26T16:45:16.490Z,101149.25
2023-04-26T16:48:02.109Z,101152.69
2023-04-26T16:50:46.917Z,101148.31
2023-04-26T16:53:32.766Z,101146.69
2023-04-26T16:56:17.634Z,101155.31
2023-04-26T16:59:02.603Z,101150.97
2023-04-26T17:01:47.688Z,101148.28
2023-04-26T17:04:33.493Z,101149.16
2023-04-26T17:07:18.595Z,101151.72
2023-04-26T17:10:05.922Z,101150.91
2023-04-26T17:12:51.140Z,101148.31
2023-04-26T17:15:38.061Z,101159.53
2023-04-26T17:18:24.169Z,101152.56
2023-04-26T17:21:09.918Z,101155.25
2023-04-26T17:23:55.083Z,101152.69
2023-04-26T17:26:40.891Z,101158.63
2023-04-26T17:29:26.303Z,101153.56
2023-04-26T17:32:11.637Z,101148.28
2023-04-26T17:34:56.561Z,101156.13
2023-04-26T17:37:49.529Z,101157.97
2023-04-26T17:40:34.288Z,101158.78
2023-04-26T17:43:21.036Z,101157.94
2023-04-26T17:46:06.577Z,101157.88
2023-04-26T17:48:51.704Z,101162.16
2023-04-26T17:51:36.654Z,101164.81
2023-04-26T17:54:21.884Z,101164.75
2023-04-26T17:57:07.728Z,101160.25
2023-04-26T17:59:53.269Z,101163.78
2023-04-26T18:02:38.874Z,101171.59
2023-04-26T18:05:24.449Z,101165.53
2023-04-26T18:08:09.506Z,101172.53
2023-04-26T18:10:55.606Z,101171.66
2023-04-26T18:13:41.220Z,101169.91
2023-04-26T18:16:29.928Z,101170.78
2023-04-26T18:19:16.345Z,101168.97
2023-04-26T18:22:01.161Z,101166.22
2023-04-26T18:24:47.064Z,101174.00
2023-04-26T18:27:32.408Z,101175.03
2023-04-26T18:30:18.217Z,101184.38
2023-04-26T18:33:04.053Z,101176.53
2023-04-26T18:35:50.624Z,101180.09
2023-04-26T18:38:36.128Z,101188.75
2023-04-26T18:41:21.218Z,101193.91
2023-04-26T18:44:12.844Z,101189.50
2023-04-26T18:46:57.783Z,101186.06
2023-04-26T18:49:42.671Z,101192.09
2023-04-26T18:52:28.091Z,101186.13
2023-04-26T18:55:14.327Z,101188.66
2023-04-26T18:58:01.621Z,101185.38
2023-04-26T19:00:50.084Z,101195.75
2023-04-26T19:03:35.041Z,101197.38
2023-04-26T19:06:19.898Z,101199.22
2023-04-26T19:09:06.564Z,101200.16
2023-04-26T19:11:52.194Z,101203.72
2023-04-26T19:14:39.112Z,101208.97
2023-04-26T19:17:24.285Z,101211.47
2023-04-26T19:20:20.074Z,101213.13
2023-04-26T19:23:07.117Z,101217.63
2023-04-26T19:25:52.262Z,101217.59
2023-04-26T19:28:37.798Z,101218.50
2023-04-26T19:31:29.164Z,101221.81
2023-04-26T19:34:14.352Z,101220.19
2023-04-26T19:36:59.161Z,101226.16
2023-04-26T19:39:44.252Z,101222.56
2023-04-26T19:42:29.991Z,101220.94
2023-04-26T19:45:17.332Z,101225.28
2023-04-26T19:48:04.599Z,101228.88
2023-04-26T19:50:49.586Z,101227.09
2023-04-26T19:53:35.447Z,101229.69
2023-04-26T19:56:20.463Z,101232.28
2023-04-26T19:59:07.515Z,101227.09
2023-04-26T20:01:55.051Z,101230.47
2023-04-26T20:04:41.959Z,101225.38
2023-04-26T20:07:27.866Z,101223.56
2023-04-26T20:10:13.051Z,101229.69
2023-04-26T20:13:01.833Z,101226.22
2023-04-26T20:15:46.809Z,101227.97
2023-04-26T20:18:32.332Z,101231.44
2023-04-26T20:21:17.460Z,101236.66
2023-04-26T20:24:02.550Z,101225.41
2023-04-26T20:26:47.602Z,101234.75
2023-04-26T20:29:32.412Z,101236.44
2023-04-26T20:32:17.350Z,101235.44
2023-04-26T20:35:03.009Z,101234.84
2023-04-26T20:37:48.088Z,101239.94
2023-04-26T20:40:33.134Z,101236.53
2023-04-26T20:43:18.289Z,101239.97
2023-04-26T20:46:03.670Z,101238.16
2023-04-26T20:48:49.120Z,101237.47
2023-04-26T20:51:34.469Z,101234.81
2023-04-26T20:54:20.771Z,101238.41
2023-04-26T20:57:06.206Z,101240.22
2023-04-26T20:59:51.146Z,101237.63
2023-04-26T21:02:37.706Z,101234.91
2023-04-26T21:05:23.978Z,101238.38
2023-04-26T21:08:09.106Z,101236.56
2023-04-26T21:10:53.889Z,101239.91
2023-04-26T21:13:39.341Z,101246.09
2023-04-26T21:16:27.839Z,101242.63
2023-04-26T21:19:13.044Z,101249.66
2023-04-26T21:21:57.891Z,101257.34
2023-04-26T21:24:42.686Z,101253.00
2023-04-26T21:27:29.018Z,101248.78
2023-04-26T21:30:15.003Z,101243.56
2023-04-26T21:32:59.984Z,101245.28
2023-04-26T21:35:45.319Z,101246.16
2023-04-26T21:38:30.389Z,101244.44
2023-04-26T21:41:15.536Z,101241.81
2023-04-26T21:44:01.409Z,101241.84
2023-04-26T21:46:46.304Z,101253.06
2023-04-26T21:49:31.722Z,101252.25
2023-04-26T21:52:16.721Z,101259.97
2023-04-26T21:55:02.182Z,101258.31
2023-04-26T21:57:47.213Z,101254.88
2023-04-26T22:00:32.546Z,101267.88
2023-04-26T22:03:18.139Z,101260.06
2023-04-26T22:06:08.331Z,101264.41
2023-04-26T22:08:53.115Z,101265.25
2023-04-26T22:11:38.346Z,101260.06
2023-04-26T22:14:23.453Z,101264.38
2023-04-26T22:17:08.539Z,101266.22
2023-04-26T22:19:55.400Z,101267.78
2023-04-26T22:22:40.747Z,101263.44
2023-04-26T22:25:26.563Z,101275.69
2023-04-26T22:28:11.467Z,101269.59
2023-04-26T22:30:56.253Z,101278.28
2023-04-26T22:33:41.045Z,101271.31
2023-04-26T22:36:25.948Z,101271.22
2023-04-26T22:39:11.007Z,101279.13
2023-04-26T22:41:56.197Z,101274.84
2023-04-26T22:44:41.811Z,101280.00
2023-04-26T22:47:27.014Z,101280.00
2023-04-26T22:50:12.297Z,101284.44
2023-04-26T22:52:57.129Z,101276.47
2023-04-26T22:55:42.652Z,101273.03
2023-04-26T22:58:27.485Z,101272.97
2023-04-26T23:01:12.709Z,101276.56
2023-04-26T23:03:57.665Z,101275.59
2023-04-26T23:06:44.010Z,101280.81
2023-04-26T23:09:28.858Z,101277.34
2023-04-26T23:12:19.250Z,101279.03
2023-04-26T23:15:05.168Z,101281.63
2023-04-26T23:17:50.408Z,101291.25
2023-04-26T23:20:35.712Z,101284.31
2023-04-26T23:23:20.896Z,101279.91
2023-04-26T23:26:08.369Z,101287.75
2023-04-26T23:28:53.973Z,101281.72
2023-04-26T23:31:39.762Z,101291.22
2023-04-26T23:34:24.913Z,101293.84
2023-04-26T23:37:09.872Z,101292.91
2023-04-26T23:39:54.630Z,101286.81
2023-04-26T23:42:40.899Z,101297.31
2023-04-26T23:45:26.098Z,101290.28
2023-04-26T23:48:11.153Z,101292.06
2023-04-26T23:50:56.344Z,101292.00
2023-04-26T23:53:41.589Z,101297.31
2023-04-26T23:56:26.470Z,101287.78
2023-04-26T23:59:11.401Z,101287.66
